Time;durP1;ratioP1;P1;durP2;ratioP2;P2;SDS_P1;SDS_P2;PMS_P1;PMS_P2;Temp;Humidity;BMP_temperature;BMP_pressure;BME280_temperature;BME280_humidity;BME280_pressure;Samples;Min_cycle;Max_cycle;Signal;HPM_P1;HPM_P2
2022/04/10 00:00:50;;;;;;;8.05;2.20;;;5.80;73.10;;;;;;5092650;28;20421;-61
2022/04/10 00:03:15;;;;;;;6.45;2.58;;;5.70;73.10;;;;;;5101594;28;20028;-61
2022/04/10 00:05:41;;;;;;;10.32;2.83;;;5.70;73.20;;;;;;5108367;28;20043;-60
2022/04/10 00:08:07;;;;;;;7.20;2.25;;;5.70;73.20;;;;;;5101430;27;20035;-61
2022/04/10 00:10:33;;;;;;;7.50;2.38;;;5.70;73.20;;;;;;5096365;28;20035;-60
2022/04/10 00:12:59;;;;;;;8.80;2.13;;;5.70;73.20;;;;;;5089958;28;20036;-60
2022/04/10 00:15:24;;;;;;;6.85;2.85;;;5.70;73.30;;;;;;5110176;28;20032;-60
2022/04/10 00:17:50;;;;;;;5.07;2.00;;;5.70;73.30;;;;;;5106869;28;20024;-59
2022/04/10 00:20:15;;;;;;;7.63;2.45;;;5.70;73.30;;;;;;5109526;28;20428;-60
2022/04/10 00:22:46;;;;;;;10.52;2.85;;;5.70;73.30;;;;;;5092123;28;20047;-61
2022/04/10 00:25:15;;;;;;;6.72;2.17;;;5.70;73.40;;;;;;5103803;28;20032;-60
2022/04/10 00:27:41;;;;;;;9.70;2.55;;;5.70;73.30;;;;;;5099576;28;20027;-60
2022/04/10 00:30:11;;;;;;;8.45;2.25;;;5.70;73.40;;;;;;5102596;28;20081;-60
2022/04/10 00:32:37;;;;;;;8.55;2.28;;;5.60;73.40;;;;;;5104048;27;20102;-61
2022/04/10 00:35:05;;;;;;;13.05;3.10;;;5.60;73.50;;;;;;5098066;28;20115;-61
2022/04/10 00:37:34;;;;;;;8.15;2.15;;;5.60;73.70;;;;;;5100254;28;20058;-59
2022/04/10 00:40:00;;;;;;;6.40;2.30;;;5.60;73.60;;;;;;5110598;27;20030;-59
2022/04/10 00:42:37;;;;;;;10.68;2.38;;;5.60;73.70;;;;;;5100994;27;20110;-59
2022/04/10 00:45:05;;;;;;;10.55;2.35;;;5.60;73.70;;;;;;5107433;28;20312;-62
2022/04/10 00:47:31;;;;;;;10.05;2.33;;;5.60;73.60;;;;;;5101376;28;20032;-59
2022/04/10 00:49:58;;;;;;;9.13;2.42;;;5.60;73.70;;;;;;5098382;28;20059;-61
2022/04/10 00:52:25;;;;;;;9.02;2.65;;;5.60;73.60;;;;;;5106477;28;20474;-61
2022/04/10 00:54:51;;;;;;;6.80;2.28;;;5.60;73.60;;;;;;5109155;27;20374;-61
2022/04/10 00:57:18;;;;;;;6.70;1.98;;;5.50;73.60;;;;;;5100592;27;20497;-61
2022/04/10 00:59:44;;;;;;;8.02;2.00;;;5.50;73.60;;;;;;5110246;27;20032;-61
2022/04/10 01:02:10;;;;;;;5.03;1.90;;;5.50;73.60;;;;;;5127053;27;20060;-60
2022/04/10 01:04:36;;;;;;;3.40;1.83;;;5.50;73.60;;;;;;5095614;27;20028;-60
2022/04/10 01:07:03;;;;;;;7.00;1.95;;;5.50;73.50;;;;;;5106729;27;20539;-60
2022/04/10 01:09:30;;;;;;;4.95;2.08;;;5.40;73.60;;;;;;5101597;27;20055;-59
2022/04/10 01:11:56;;;;;;;6.97;2.20;;;5.40;73.70;;;;;;5099528;27;20094;-61
2022/04/10 01:14:22;;;;;;;5.00;2.00;;;5.40;73.70;;;;;;5105754;27;20053;-61
2022/04/10 01:16:47;;;;;;;7.70;2.35;;;5.30;73.60;;;;;;5103801;28;20165;-61
2022/04/10 01:19:15;;;;;;;7.75;2.00;;;5.30;73.80;;;;;;5100088;28;20186;-61
2022/04/10 01:21:46;;;;;;;5.53;2.05;;;5.20;73.80;;;;;;5106700;27;20038;-61
2022/04/10 01:24:14;;;;;;;6.60;2.00;;;5.20;73.90;;;;;;5108960;28;20379;-61
2022/04/10 01:26:41;;;;;;;6.50;1.98;;;5.20;74.00;;;;;;5107877;27;20051;-60
2022/04/10 01:29:09;;;;;;;8.32;2.05;;;5.20;74.10;;;;;;5107347;27;20063;-59
2022/04/10 01:31:40;;;;;;;7.07;1.85;;;5.10;74.10;;;;;;5101700;28;20020;-60
2022/04/10 01:34:08;;;;;;;7.05;2.00;;;5.10;74.20;;;;;;5110025;28;20032;-60
2022/04/10 01:36:35;;;;;;;7.72;2.03;;;5.10;74.10;;;;;;5097976;28;20044;-62
2022/04/10 01:39:04;;;;;;;5.90;2.13;;;5.00;74.20;;;;;;5109063;28;20471;-61
2022/04/10 01:41:30;;;;;;;7.88;2.28;;;5.00;74.30;;;;;;5110516;28;20080;-60
2022/04/10 01:43:58;;;;;;;7.35;2.25;;;5.00;74.40;;;;;;5109088;28;20028;-59
2022/04/10 01:46:26;;;;;;;7.13;2.03;;;4.90;74.40;;;;;;5097044;28;20031;-60
2022/04/10 01:48:52;;;;;;;6.47;2.03;;;4.90;74.40;;;;;;5094356;28;20534;-60
2022/04/10 01:51:18;;;;;;;4.53;1.95;;;4.90;74.40;;;;;;5110425;28;20023;-60
2022/04/10 01:53:44;;;;;;;7.15;1.90;;;4.80;74.40;;;;;;5102853;27;20027;-59
2022/04/10 01:56:10;;;;;;;5.63;1.92;;;4.80;74.40;;;;;;5108699;28;20110;-60
2022/04/10 01:58:44;;;;;;;6.15;2.20;;;4.80;74.50;;;;;;5099768;28;20084;-60
2022/04/10 02:01:11;;;;;;;6.72;2.15;;;4.80;74.50;;;;;;5096222;27;20032;-59
2022/04/10 02:03:37;;;;;;;4.72;2.17;;;4.70;74.50;;;;;;5104289;27;20156;-61
2022/04/10 02:06:05;;;;;;;4.90;1.80;;;4.70;74.80;;;;;;5108237;28;20435;-61
2022/04/10 02:08:31;;;;;;;8.27;1.88;;;4.70;75.00;;;;;;5106056;27;20086;-61
2022/04/10 02:10:58;;;;;;;6.57;1.77;;;4.60;75.10;;;;;;5095611;27;20177;-61
2022/04/10 02:13:24;;;;;;;9.57;2.67;;;4.60;75.10;;;;;;5098636;28;20035;-61
2022/04/10 02:15:50;;;;;;;6.72;2.58;;;4.60;75.10;;;;;;5104710;28;20387;-61
2022/04/10 02:18:16;;;;;;;5.13;2.17;;;4.60;75.20;;;;;;5118876;27;20037;-61
2022/04/10 02:20:42;;;;;;;3.40;1.63;;;4.60;75.30;;;;;;5096584;28;20045;-61
2022/04/10 02:23:08;;;;;;;6.82;2.00;;;4.50;75.30;;;;;;5109665;28;20081;-60
2022/04/10 02:25:34;;;;;;;5.53;2.10;;;4.50;75.30;;;;;;5108832;28;20053;-61
2022/04/10 02:28:00;;;;;;;8.15;2.70;;;4.50;75.40;;;;;;5109437;28;20114;-61
2022/04/10 02:30:26;;;;;;;8.55;2.13;;;4.50;75.50;;;;;;5107942;28;20055;-61
2022/04/10 02:32:52;;;;;;;7.82;2.55;;;4.50;75.70;;;;;;5109415;28;20023;-61
2022/04/10 02:35:18;;;;;;;7.88;2.35;;;4.50;75.80;;;;;;5107076;28;20103;-61
2022/04/10 02:37:47;;;;;;;6.15;2.30;;;4.40;75.80;;;;;;5099673;28;20069;-60
2022/04/10 02:40:14;;;;;;;6.25;2.20;;;4.40;75.80;;;;;;5109160;28;20031;-61
2022/04/10 02:42:40;;;;;;;7.72;2.65;;;4.40;76.00;;;;;;5109427;28;20032;-61
2022/04/10 02:45:07;;;;;;;5.85;2.42;;;4.40;76.10;;;;;;5109300;28;20103;-60
2022/04/10 02:47:33;;;;;;;8.48;2.40;;;4.40;76.30;;;;;;5107061;27;20031;-61
2022/04/10 02:49:59;;;;;;;11.52;2.90;;;4.40;76.30;;;;;;5095048;28;20078;-59
2022/04/10 02:52:25;;;;;;;6.25;2.22;;;4.30;76.50;;;;;;5106084;28;20562;-61
2022/04/10 02:54:51;;;;;;;9.73;2.97;;;4.30;76.60;;;;;;5106242;28;20119;-59
2022/04/10 02:57:16;;;;;;;10.80;2.42;;;4.40;76.80;;;;;;5101553;28;20110;-61
2022/04/10 02:59:42;;;;;;;10.45;2.78;;;4.40;76.90;;;;;;5109410;28;20035;-61
2022/04/10 03:02:08;;;;;;;9.00;2.88;;;4.30;76.80;;;;;;5107394;28;20034;-61
2022/04/10 03:04:33;;;;;;;5.90;2.22;;;4.30;76.90;;;;;;5108469;28;20143;-61
2022/04/10 03:06:59;;;;;;;8.52;2.63;;;4.30;76.80;;;;;;5090193;28;20035;-61
2022/04/10 03:09:25;;;;;;;8.27;2.28;;;4.30;76.80;;;;;;5105530;28;20078;-61
2022/04/10 03:11:51;;;;;;;7.57;2.50;;;4.30;76.80;;;;;;5090647;28;20115;-61
2022/04/10 03:14:17;;;;;;;10.60;2.80;;;4.30;76.80;;;;;;5088799;28;20063;-61
2022/04/10 03:16:43;;;;;;;6.28;2.33;;;4.30;76.80;;;;;;5092168;28;20086;-59
2022/04/10 03:19:09;;;;;;;7.45;2.50;;;4.20;76.70;;;;;;5100274;28;20421;-59
2022/04/10 03:21:35;;;;;;;9.52;2.60;;;4.20;76.70;;;;;;5102484;28;20028;-60
2022/04/10 03:24:01;;;;;;;6.85;2.58;;;4.20;76.70;;;;;;5124408;28;20478;-59
2022/04/10 03:26:30;;;;;;;8.85;2.80;;;4.20;76.60;;;;;;5095429;28;20058;-60
2022/04/10 03:28:56;;;;;;;7.07;2.25;;;4.20;76.60;;;;;;5108437;28;20522;-61
2022/04/10 03:31:22;;;;;;;12.55;3.33;;;4.20;76.50;;;;;;5088000;28;20038;-61
2022/04/10 03:33:49;;;;;;;7.82;2.53;;;4.20;76.40;;;;;;5104043;28;20092;-59
2022/04/10 03:36:15;;;;;;;9.18;2.65;;;4.20;76.30;;;;;;5102817;28;20048;-61
2022/04/10 03:38:41;;;;;;;7.57;2.42;;;4.10;76.30;;;;;;5088816;28;20028;-61
2022/04/10 03:41:06;;;;;;;9.38;2.40;;;4.10;76.30;;;;;;5088636;28;20032;-61
2022/04/10 03:43:32;;;;;;;8.80;2.70;;;4.10;76.30;;;;;;5100477;28;20050;-59
2022/04/10 03:45:58;;;;;;;5.97;2.50;;;4.00;76.30;;;;;;5112033;28;20027;-59
2022/04/10 03:48:24;;;;;;;5.13;2.58;;;4.00;76.30;;;;;;5094941;28;20488;-60
2022/04/10 03:50:50;;;;;;;8.40;2.83;;;4.00;76.30;;;;;;5110356;27;20101;-60
2022/04/10 03:53:16;;;;;;;7.68;3.10;;;4.00;76.30;;;;;;5110209;28;20027;-59
2022/04/10 03:55:42;;;;;;;6.60;2.28;;;3.90;76.40;;;;;;5110654;27;20035;-60
2022/04/10 03:58:08;;;;;;;8.70;2.80;;;3.90;76.40;;;;;;5113048;27;20023;-59
2022/04/10 04:00:34;;;;;;;6.03;2.40;;;3.90;76.40;;;;;;5092715;27;20464;-62
2022/04/10 04:03:00;;;;;;;10.38;3.25;;;3.80;76.40;;;;;;5097527;27;20082;-62
2022/04/10 04:05:25;;;;;;;9.68;2.50;;;3.80;76.40;;;;;;5092227;28;20032;-61
2022/04/10 04:07:51;;;;;;;10.95;3.50;;;3.80;76.50;;;;;;5105320;28;20032;-61
2022/04/10 04:10:17;;;;;;;5.40;2.60;;;3.80;76.60;;;;;;5111833;28;20073;-61
2022/04/10 04:12:42;;;;;;;8.27;2.45;;;3.70;76.50;;;;;;5094219;28;20477;-62
2022/04/10 04:15:10;;;;;;;10.88;2.72;;;3.70;76.60;;;;;;5106898;28;20036;-61
2022/04/10 04:17:37;;;;;;;7.93;2.95;;;3.70;76.70;;;;;;5098376;27;20502;-62
2022/04/10 04:20:04;;;;;;;8.32;3.13;;;3.70;76.90;;;;;;5110631;28;20451;-60
2022/04/10 04:22:30;;;;;;;8.10;2.47;;;3.60;77.00;;;;;;5095310;28;20040;-60
2022/04/10 04:24:55;;;;;;;6.72;2.63;;;3.60;77.10;;;;;;5108152;28;20388;-62
2022/04/10 04:27:21;;;;;;;5.82;2.10;;;3.60;77.10;;;;;;5102548;27;20027;-60
2022/04/10 04:29:47;;;;;;;10.52;3.55;;;3.60;77.10;;;;;;5125294;27;20036;-60
2022/04/10 04:32:12;;;;;;;5.47;2.10;;;3.60;77.10;;;;;;5090962;27;20067;-60
2022/04/10 04:34:38;;;;;;;7.70;2.72;;;3.60;77.10;;;;;;5111207;28;20375;-60
2022/04/10 04:37:04;;;;;;;10.63;2.80;;;3.60;77.10;;;;;;5101921;27;20524;-60
2022/04/10 04:39:30;;;;;;;6.63;2.40;;;3.60;77.20;;;;;;5090450;28;20023;-60
2022/04/10 04:41:56;;;;;;;6.90;2.50;;;3.60;77.20;;;;;;5102433;27;20028;-59
2022/04/10 04:44:23;;;;;;;7.72;2.30;;;3.50;77.20;;;;;;5110139;28;20023;-60
2022/04/10 04:46:48;;;;;;;7.75;2.65;;;3.50;77.20;;;;;;5101086;28;20032;-62
2022/04/10 04:49:14;;;;;;;8.77;3.28;;;3.50;77.30;;;;;;5089490;28;20123;-62
2022/04/10 04:51:40;;;;;;;6.88;2.70;;;3.50;77.40;;;;;;5091615;27;20038;-61
2022/04/10 04:54:09;;;;;;;6.97;2.58;;;3.50;77.40;;;;;;5090644;28;20032;-60
2022/04/10 04:56:35;;;;;;;9.75;2.92;;;3.50;77.50;;;;;;5091495;27;20039;-60
2022/04/10 04:59:00;;;;;;;6.13;2.30;;;3.40;77.50;;;;;;5099771;28;20471;-60
2022/04/10 05:01:26;;;;;;;7.05;2.50;;;3.40;77.50;;;;;;5096194;28;20024;-60
2022/04/10 05:03:52;;;;;;;10.35;2.50;;;3.40;77.60;;;;;;5102478;27;20032;-60
2022/04/10 05:06:18;;;;;;;11.23;2.58;;;3.40;77.60;;;;;;5108884;28;20178;-60
2022/04/10 05:08:46;;;;;;;7.63;2.40;;;3.40;77.70;;;;;;5109327;27;20047;-60
2022/04/10 05:11:15;;;;;;;7.03;2.67;;;3.40;77.70;;;;;;5105845;28;20388;-62
2022/04/10 05:13:41;;;;;;;6.95;2.40;;;3.40;77.90;;;;;;5090653;28;20035;-60
2022/04/10 05:16:07;;;;;;;5.35;2.42;;;3.40;77.90;;;;;;5091019;27;20039;-62
2022/04/10 05:18:34;;;;;;;10.95;2.70;;;3.40;78.00;;;;;;5096487;28;20032;-62
2022/04/10 05:20:59;;;;;;;8.48;2.65;;;3.40;78.10;;;;;;5108976;28;20028;-62
2022/04/10 05:23:25;;;;;;;7.22;2.78;;;3.40;78.20;;;;;;5108348;28;20028;-62
2022/04/10 05:25:52;;;;;;;8.32;2.40;;;3.40;78.30;;;;;;5089685;28;20028;-60
2022/04/10 05:28:17;;;;;;;5.50;2.58;;;3.40;78.20;;;;;;5089748;28;20027;-62
2022/04/10 05:30:43;;;;;;;7.07;2.67;;;3.50;78.20;;;;;;5101093;28;20031;-60
2022/04/10 05:33:10;;;;;;;7.68;3.05;;;3.50;78.20;;;;;;5111444;27;20553;-60
2022/04/10 05:35:36;;;;;;;6.35;2.83;;;3.50;78.30;;;;;;5109899;28;20530;-62
2022/04/10 05:38:03;;;;;;;6.78;2.65;;;3.50;78.30;;;;;;5099210;28;20098;-61
2022/04/10 05:40:28;;;;;;;4.32;2.00;;;3.50;78.30;;;;;;5093967;28;20111;-60
2022/04/10 05:42:54;;;;;;;6.07;2.30;;;3.50;78.30;;;;;;5103905;28;20557;-59
2022/04/10 05:45:20;;;;;;;6.65;2.90;;;3.50;78.40;;;;;;5108491;28;20034;-62
2022/04/10 05:47:46;;;;;;;8.52;2.75;;;3.60;78.50;;;;;;5093304;27;20020;-62
2022/04/10 05:50:12;;;;;;;7.38;2.35;;;3.60;78.70;;;;;;5089600;28;20054;-61
2022/04/10 05:52:39;;;;;;;6.18;2.45;;;3.60;78.80;;;;;;5095934;27;20024;-61
2022/04/10 05:55:06;;;;;;;7.68;2.60;;;3.60;78.90;;;;;;5108639;27;20077;-61
2022/04/10 05:57:32;;;;;;;5.75;2.33;;;3.70;79.00;;;;;;5106387;28;20032;-62
2022/04/10 05:59:58;;;;;;;5.63;2.42;;;3.70;79.10;;;;;;5089525;28;20020;-60
2022/04/10 06:02:24;;;;;;;6.97;2.72;;;3.70;79.20;;;;;;5089651;28;20510;-60
2022/04/10 06:04:49;;;;;;;9.07;2.47;;;3.70;79.30;;;;;;5102437;28;20497;-61
2022/04/10 06:07:15;;;;;;;9.75;3.42;;;3.80;79.50;;;;;;5108970;28;20062;-61
2022/04/10 06:09:41;;;;;;;8.60;2.67;;;3.80;79.50;;;;;;5109843;28;20079;-61
2022/04/10 06:12:07;;;;;;;10.25;2.88;;;3.90;79.50;;;;;;5101260;28;20083;-63
2022/04/10 06:14:32;;;;;;;7.53;2.80;;;3.90;79.60;;;;;;5099724;28;20436;-61
2022/04/10 06:16:58;;;;;;;8.15;2.60;;;4.00;79.70;;;;;;5101308;27;20085;-63
2022/04/10 06:19:24;;;;;;;7.28;2.30;;;4.00;79.70;;;;;;5108721;28;20031;-59
2022/04/10 06:21:50;;;;;;;5.90;2.35;;;4.10;79.70;;;;;;5125807;27;20390;-62
2022/04/10 06:24:15;;;;;;;5.40;2.35;;;4.20;79.60;;;;;;5117962;27;20055;-59
2022/04/10 06:26:44;;;;;;;8.30;2.63;;;4.30;79.40;;;;;;5114617;27;20030;-59
2022/04/10 06:29:09;;;;;;;6.30;2.08;;;4.40;79.30;;;;;;5111012;27;20554;-59
2022/04/10 06:31:35;;;;;;;6.53;2.47;;;4.50;79.20;;;;;;5106875;28;20024;-61
2022/04/10 06:34:01;;;;;;;6.05;2.00;;;4.60;79.00;;;;;;5108150;28;20127;-63
2022/04/10 06:36:27;;;;;;;6.72;2.20;;;4.70;78.70;;;;;;5106560;28;20139;-60
2022/04/10 06:38:53;;;;;;;6.07;2.00;;;4.80;78.50;;;;;;5110253;28;20385;-61
2022/04/10 06:41:18;;;;;;;5.30;2.00;;;4.80;78.10;;;;;;5109020;28;20066;-61
2022/04/10 06:43:44;;;;;;;7.20;1.83;;;4.90;77.90;;;;;;5106931;28;20418;-60
2022/04/10 06:46:10;;;;;;;7.40;1.83;;;5.10;77.60;;;;;;5106910;28;20038;-60
2022/04/10 06:48:36;;;;;;;10.82;2.08;;;5.20;77.40;;;;;;5105864;28;20024;-59
2022/04/10 06:51:03;;;;;;;11.30;2.30;;;5.30;77.10;;;;;;5108400;28;20505;-61
2022/04/10 06:53:28;;;;;;;11.52;2.45;;;5.50;76.30;;;;;;5107444;28;20032;-61
2022/04/10 06:55:54;;;;;;;12.02;2.88;;;5.50;75.20;;;;;;5114674;28;20030;-61
2022/04/10 06:58:22;;;;;;;8.18;2.47;;;5.60;75.20;;;;;;5126995;28;20022;-60
2022/04/10 07:00:49;;;;;;;6.93;2.45;;;5.50;75.40;;;;;;5104648;27;20031;-61
2022/04/10 07:03:15;;;;;;;9.80;2.47;;;5.60;75.80;;;;;;5107384;28;20027;-60
2022/04/10 07:05:41;;;;;;;6.43;2.50;;;5.60;76.00;;;;;;5111721;27;20616;-60
2022/04/10 07:08:07;;;;;;;9.18;3.63;;;5.60;76.30;;;;;;5108549;28;20103;-62
2022/04/10 07:10:33;;;;;;;3.63;1.90;;;5.60;76.50;;;;;;5116521;28;20030;-62
2022/04/10 07:12:59;;;;;;;8.70;2.50;;;5.60;76.90;;;;;;5127241;28;20027;-62
2022/04/10 07:15:25;;;;;;;9.65;2.67;;;5.60;77.20;;;;;;5107629;27;20099;-61
2022/04/10 07:17:52;;;;;;;6.22;2.28;;;5.60;77.30;;;;;;5098826;28;20081;-61
2022/04/10 07:20:18;;;;;;;6.03;2.42;;;5.70;77.60;;;;;;5108336;27;20477;-61
2022/04/10 07:25:28;;;;;;;5.75;2.22;;;5.70;78.10;;;;;;5114930;27;20042;-61
2022/04/10 07:27:54;;;;;;;4.03;1.90;;;5.70;78.20;;;;;;5120008;27;20027;-61
2022/04/10 07:30:19;;;;;;;5.68;1.98;;;5.70;78.30;;;;;;5107408;28;20061;-60
2022/04/10 07:32:56;;;;;;;5.30;2.63;;;5.60;78.50;;;;;;5118089;27;20153;-61
2022/04/10 07:35:22;;;;;;;4.90;2.05;;;5.60;78.80;;;;;;5102799;28;20049;-61
2022/04/10 07:37:48;;;;;;;5.63;1.85;;;5.60;78.80;;;;;;5101327;28;20027;-60
2022/04/10 07:40:15;;;;;;;8.18;2.03;;;5.60;79.00;;;;;;5093010;28;20083;-61
2022/04/10 07:42:43;;;;;;;4.40;1.77;;;5.70;79.30;;;;;;5109197;27;20403;-60
2022/04/10 07:45:10;;;;;;;6.32;1.60;;;5.70;79.30;;;;;;5113835;27;20024;-60
2022/04/10 07:47:36;;;;;;;4.65;2.05;;;5.80;79.40;;;;;;5091587;28;20032;-61
2022/04/10 07:50:02;;;;;;;3.22;1.33;;;5.80;79.30;;;;;;5093511;28;20774;-61
2022/04/10 07:52:28;;;;;;;6.07;1.77;;;5.90;79.40;;;;;;5111261;28;20019;-61
2022/04/10 07:54:54;;;;;;;6.32;1.60;;;6.00;79.30;;;;;;5095711;28;20350;-61
2022/04/10 07:57:20;;;;;;;3.50;1.42;;;6.00;79.20;;;;;;5091147;28;20043;-60
2022/04/10 07:59:46;;;;;;;5.20;1.20;;;6.10;79.20;;;;;;5091034;28;20112;-61
2022/04/10 08:02:12;;;;;;;3.67;1.55;;;6.20;79.20;;;;;;5092882;28;20061;-61
2022/04/10 08:04:38;;;;;;;2.85;1.10;;;6.40;79.00;;;;;;5112154;28;20024;-61
2022/04/10 08:07:04;;;;;;;4.57;1.25;;;6.50;78.30;;;;;;5102090;28;20118;-61
2022/04/10 08:09:31;;;;;;;3.17;1.20;;;6.50;77.80;;;;;;5111737;28;20458;-61
2022/04/10 08:11:57;;;;;;;3.10;1.00;;;6.60;77.10;;;;;;5098738;27;20024;-61
2022/04/10 08:14:23;;;;;;;4.97;1.15;;;6.60;76.80;;;;;;5101549;28;20039;-61
2022/04/10 08:16:49;;;;;;;5.75;1.30;;;6.70;76.20;;;;;;5099261;27;20040;-61
2022/04/10 08:19:14;;;;;;;5.57;1.27;;;6.70;76.00;;;;;;5096472;27;20023;-61
2022/04/10 08:21:40;;;;;;;3.15;1.33;;;6.80;76.10;;;;;;5111219;27;20038;-61
2022/04/10 08:24:09;;;;;;;4.60;1.60;;;6.80;75.90;;;;;;5089013;28;20051;-61
2022/04/10 08:26:34;;;;;;;5.90;1.20;;;6.90;75.60;;;;;;5109860;27;20666;-61
2022/04/10 08:29:00;;;;;;;2.65;1.05;;;7.00;74.90;;;;;;5114402;27;20031;-61
2022/04/10 08:31:28;;;;;;;5.35;1.20;;;7.10;74.90;;;;;;5115042;27;20152;-61
2022/04/10 08:33:54;;;;;;;5.13;1.40;;;7.10;74.60;;;;;;5109694;27;20046;-61
2022/04/10 08:36:19;;;;;;;6.00;1.33;;;7.20;74.80;;;;;;5112419;27;20047;-59
2022/04/10 08:38:45;;;;;;;3.33;1.23;;;7.30;73.50;;;;;;5097829;28;20026;-58
2022/04/10 08:41:12;;;;;;;3.10;1.05;;;7.30;73.10;;;;;;5099663;27;20076;-59
2022/04/10 08:43:39;;;;;;;4.22;1.30;;;7.40;73.00;;;;;;5123839;27;20516;-59
2022/04/10 08:46:06;;;;;;;3.35;1.00;;;7.50;72.50;;;;;;5097421;28;20028;-60
2022/04/10 08:48:32;;;;;;;4.05;1.38;;;7.50;71.80;;;;;;5107494;27;20604;-60
2022/04/10 08:50:59;;;;;;;3.78;0.90;;;7.50;71.10;;;;;;5118534;27;20062;-60
2022/04/10 08:53:25;;;;;;;5.18;1.33;;;7.60;70.80;;;;;;5113895;27;20039;-60
2022/04/10 08:55:52;;;;;;;5.32;0.98;;;7.70;68.90;;;;;;5108949;27;20420;-60
2022/04/10 08:58:20;;;;;;;3.20;1.00;;;7.70;69.40;;;;;;5106732;27;20026;-59
2022/04/10 09:00:46;;;;;;;5.60;1.10;;;7.80;69.90;;;;;;5105792;27;20478;-59
2022/04/10 09:03:12;;;;;;;4.43;1.50;;;7.90;68.60;;;;;;5105407;28;20019;-59
2022/04/10 09:05:40;;;;;;;5.75;1.48;;;8.00;68.40;;;;;;5110430;27;20447;-59
2022/04/10 09:08:11;;;;;;;3.72;1.02;;;8.10;68.70;;;;;;5107068;28;20020;-60
2022/04/10 09:11:08;;;;;;;4.20;1.10;;;8.20;68.50;;;;;;5108722;28;20031;-61
2022/04/10 09:13:46;;;;;;;4.18;1.60;;;8.40;68.50;;;;;;5115800;27;20031;-61
2022/04/10 09:16:15;;;;;;;5.80;1.33;;;8.50;68.10;;;;;;5110110;27;20386;-61
2022/04/10 09:18:46;;;;;;;4.88;1.75;;;8.60;67.70;;;;;;5109908;27;20035;-61
2022/04/10 09:21:13;;;;;;;2.15;0.93;;;8.70;66.70;;;;;;5115113;27;20050;-61
2022/04/10 09:23:39;;;;;;;5.57;1.30;;;8.80;66.30;;;;;;5103140;28;20374;-61
2022/04/10 09:26:05;;;;;;;5.43;1.35;;;8.90;66.60;;;;;;5095737;28;20040;-61
2022/04/10 09:28:51;;;;;;;3.47;0.90;;;9.00;66.70;;;;;;5089220;28;20039;-61
2022/04/10 09:31:30;;;;;;;4.20;1.15;;;9.10;66.00;;;;;;5091935;27;20486;-61
2022/04/10 09:33:57;;;;;;;2.67;1.10;;;9.20;64.60;;;;;;5107605;27;20059;-61
2022/04/10 09:36:37;;;;;;;6.20;1.95;;;9.20;64.30;;;;;;5100324;28;20533;-60
2022/04/10 09:39:12;;;;;;;5.05;1.50;;;9.30;64.00;;;;;;5107570;28;20059;-61
2022/04/10 09:41:39;;;;;;;3.03;1.00;;;9.30;63.30;;;;;;5099201;27;20028;-61
2022/04/10 09:44:12;;;;;;;3.30;1.50;;;9.30;62.50;;;;;;5093858;28;20489;-61
2022/04/10 09:46:38;;;;;;;3.20;1.17;;;9.40;62.60;;;;;;5101006;28;20031;-60
2022/04/10 09:49:18;;;;;;;1.98;0.90;;;9.50;62.70;;;;;;5099770;28;20035;-61
2022/04/10 09:52:04;;;;;;;4.25;1.20;;;9.60;62.30;;;;;;5103271;27;20026;-60
2022/04/10 09:54:35;;;;;;;3.75;1.10;;;9.70;62.80;;;;;;5104329;28;20490;-61
2022/04/10 09:57:11;;;;;;;3.30;0.90;;;9.90;62.20;;;;;;5103600;28;20067;-60
2022/04/10 09:59:43;;;;;;;4.10;1.40;;;9.90;61.50;;;;;;5105758;28;20058;-60
2022/04/10 10:02:11;;;;;;;2.60;1.50;;;9.90;60.60;;;;;;5095160;28;20024;-60
2022/04/10 10:04:38;;;;;;;8.23;2.00;;;10.00;60.10;;;;;;5090646;28;20428;-60
2022/04/10 10:07:07;;;;;;;3.45;1.10;;;10.10;60.00;;;;;;5092137;28;20032;-61
2022/04/10 10:09:33;;;;;;;5.45;1.10;;;10.20;59.60;;;;;;5105669;28;20059;-61
2022/04/10 10:12:03;;;;;;;4.30;1.13;;;10.30;59.00;;;;;;5106983;28;20059;-61
2022/04/10 10:14:31;;;;;;;4.97;1.00;;;10.40;57.60;;;;;;5104965;27;20448;-61
2022/04/10 10:17:02;;;;;;;5.80;1.27;;;10.40;56.00;;;;;;5103880;27;20080;-60
2022/04/10 10:19:35;;;;;;;6.63;1.10;;;10.40;56.00;;;;;;5104282;27;21470;-61
2022/04/10 10:22:03;;;;;;;3.78;1.27;;;10.40;55.30;;;;;;5104884;28;20076;-61
2022/04/10 10:24:56;;;;;;;5.07;1.10;;;10.40;56.50;;;;;;5104627;28;20074;-60
2022/04/10 10:27:58;;;;;;;2.25;1.00;;;10.70;56.60;;;;;;5106029;28;20411;-61
2022/04/10 10:30:40;;;;;;;6.05;1.20;;;10.90;56.50;;;;;;5083264;28;20040;-61
2022/04/10 10:33:17;;;;;;;3.45;0.90;;;11.00;54.90;;;;;;5103899;28;20467;-61
2022/04/10 10:35:50;;;;;;;3.78;1.38;;;11.00;54.40;;;;;;5104462;28;20104;-60
2022/04/10 10:38:30;;;;;;;4.53;1.23;;;10.90;53.00;;;;;;5118893;27;20474;-60
2022/04/10 10:41:16;;;;;;;3.42;0.93;;;10.70;53.20;;;;;;5100382;28;20030;-60
2022/04/10 10:43:43;;;;;;;3.65;1.27;;;10.60;53.90;;;;;;5105953;28;20568;-60
2022/04/10 10:46:32;;;;;;;1.02;0.70;;;10.70;54.70;;;;;;5107114;28;20039;-60
2022/04/10 10:49:17;;;;;;;1.30;0.60;;;10.80;53.80;;;;;;5105592;28;20035;-61
2022/04/10 10:51:47;;;;;;;2.05;0.90;;;10.90;53.40;;;;;;5101186;27;20047;-60
2022/04/10 10:54:26;;;;;;;2.88;0.70;;;11.00;53.20;;;;;;5109334;27;20032;-61
2022/04/10 10:56:52;;;;;;;4.72;1.13;;;11.30;53.50;;;;;;5110081;27;20498;-60
2022/04/10 10:59:20;;;;;;;7.05;1.20;;;11.60;53.20;;;;;;5109870;28;20035;-60
2022/04/10 11:02:01;;;;;;;2.42;0.80;;;11.80;51.40;;;;;;5120359;27;20120;-60
2022/04/10 11:04:31;;;;;;;3.03;0.95;;;11.60;49.50;;;;;;5109903;27;20126;-60
2022/04/10 11:07:13;;;;;;;3.33;0.68;;;11.40;50.30;;;;;;5112873;27;20035;-60
2022/04/10 11:09:58;;;;;;;2.13;0.98;;;11.30;50.80;;;;;;5108692;28;20058;-60
2022/04/10 11:13:01;;;;;;;2.78;0.88;;;11.40;49.70;;;;;;5105465;27;20027;-61
2022/04/10 11:15:55;;;;;;;3.85;0.95;;;11.60;49.50;;;;;;5099302;27;20047;-61
2022/04/10 11:18:29;;;;;;;3.58;1.13;;;11.70;49.70;;;;;;5104996;28;20024;-60
2022/04/10 11:21:05;;;;;;;3.65;0.80;;;11.60;49.50;;;;;;5097470;28;20070;-61
2022/04/10 11:23:36;;;;;;;1.38;0.90;;;11.40;47.80;;;;;;5107042;27;20024;-60
2022/04/10 11:26:07;;;;;;;2.55;0.80;;;11.20;47.50;;;;;;5111157;28;20035;-61
2022/04/10 11:28:53;;;;;;;2.80;0.70;;;11.10;46.80;;;;;;5106816;28;20554;-61
2022/04/10 11:31:40;;;;;;;2.67;0.60;;;11.20;47.40;;;;;;5102312;27;20045;-61
2022/04/10 11:34:39;;;;;;;3.28;1.17;;;11.40;48.40;;;;;;5111049;27;20115;-61
2022/04/10 11:37:05;;;;;;;2.92;1.00;;;11.80;47.80;;;;;;5104635;27;20047;-62
2022/04/10 11:39:35;;;;;;;3.10;0.90;;;11.80;46.10;;;;;;5107034;28;20045;-61
2022/04/10 11:42:03;;;;;;;2.33;0.77;;;11.70;46.20;;;;;;5108878;27;20519;-61
2022/04/10 11:44:29;;;;;;;2.55;0.77;;;11.70;45.60;;;;;;5110772;27;20030;-61
2022/04/10 11:46:58;;;;;;;2.92;0.88;;;11.70;46.20;;;;;;5110373;27;20119;-61
2022/04/10 11:49:23;;;;;;;2.05;0.70;;;11.80;46.80;;;;;;5106991;27;20562;-61
2022/04/10 11:51:54;;;;;;;2.25;0.60;;;12.10;47.30;;;;;;5110003;27;20035;-61
2022/04/10 11:54:34;;;;;;;2.72;0.60;;;12.40;47.20;;;;;;5108969;27;20134;-61
2022/04/10 11:57:01;;;;;;;3.38;0.80;;;12.70;46.40;;;;;;5108353;27;20036;-60
2022/04/10 11:59:34;;;;;;;3.45;1.13;;;12.90;46.60;;;;;;5110941;27;20114;-60
2022/04/10 12:02:01;;;;;;;2.17;0.80;;;13.10;46.50;;;;;;5107724;27;20028;-60
2022/04/10 12:04:27;;;;;;;2.75;0.80;;;13.10;45.00;;;;;;5110600;27;20035;-60
2022/04/10 12:06:53;;;;;;;1.20;0.70;;;13.00;43.90;;;;;;5112206;28;20036;-60
2022/04/10 12:09:18;;;;;;;3.85;2.22;;;12.80;43.50;;;;;;5108240;27;20027;-60
2022/04/10 12:11:44;;;;;;;3.35;1.23;;;12.70;43.30;;;;;;5104026;27;20039;-60
2022/04/10 12:14:17;;;;;;;3.35;1.10;;;12.80;44.10;;;;;;5108230;28;20109;-60
2022/04/10 12:16:45;;;;;;;4.75;1.10;;;13.10;43.50;;;;;;5113707;27;20031;-61
2022/04/10 12:19:11;;;;;;;3.22;1.05;;;13.40;42.50;;;;;;5122002;27;20494;-61
2022/04/10 12:21:46;;;;;;;2.63;0.77;;;13.50;42.50;;;;;;5116141;27;20027;-60
2022/04/10 12:24:18;;;;;;;3.42;0.90;;;13.70;42.50;;;;;;5102411;28;20048;-60
2022/04/10 12:26:44;;;;;;;3.60;0.95;;;13.90;42.80;;;;;;5103464;27;20024;-60
2022/04/10 12:29:11;;;;;;;2.25;0.82;;;13.80;42.40;;;;;;5114492;27;20080;-61
2022/04/10 12:31:41;;;;;;;2.53;1.10;;;13.70;42.10;;;;;;5114200;27;20035;-60
2022/04/10 12:34:10;;;;;;;1.63;0.80;;;13.60;42.30;;;;;;5116195;27;20477;-61
2022/04/10 12:36:53;;;;;;;1.55;0.70;;;13.70;41.90;;;;;;5109020;27;20056;-60
2022/04/10 12:39:26;;;;;;;2.97;0.82;;;13.80;41.40;;;;;;5108820;27;20428;-61
2022/04/10 12:42:10;;;;;;;2.95;1.00;;;13.90;41.00;;;;;;5105473;28;20074;-60
2022/04/10 12:44:37;;;;;;;2.08;0.85;;;14.10;40.80;;;;;;5115681;27;20027;-60
2022/04/10 12:47:08;;;;;;;1.83;0.70;;;14.30;39.00;;;;;;5110940;27;20032;-61
2022/04/10 12:49:35;;;;;;;1.42;0.77;;;14.30;38.50;;;;;;5110728;27;20118;-60
2022/04/10 12:52:03;;;;;;;3.17;0.90;;;14.30;38.40;;;;;;5137852;27;20103;-60
2022/04/10 12:54:35;;;;;;;1.38;0.82;;;14.40;38.40;;;;;;5105619;27;20031;-60
2022/04/10 12:57:01;;;;;;;1.88;0.73;;;14.30;38.40;;;;;;5109921;28;20034;-61
2022/04/10 12:59:41;;;;;;;1.25;0.75;;;14.10;37.80;;;;;;5105376;28;20028;-60
2022/04/10 13:13:07;;;;;;;2.45;0.82;;;14.40;37.00;;;;;;5117688;27;20111;-61